sensor_id;sensor_type;location;lat;lon;timestamp;P1;durP1;ratioP1;P2;durP2;ratioP2
32080;SDS011;18593;51.426;7.030;2023-08-08T00:02:16;9.63;;;2.40;;
32080;SDS011;18593;51.426;7.030;2023-08-08T00:04:43;6.60;;;2.80;;
32080;SDS011;18593;51.426;7.030;2023-08-08T00:07:10;5.88;;;2.80;;
32080;SDS011;18593;51.426;7.030;2023-08-08T00:09:37;5.82;;;2.40;;
32080;SDS011;18593;51.426;7.030;2023-08-08T00:12:05;6.07;;;2.25;;
32080;SDS011;18593;51.426;7.030;2023-08-08T00:14:33;4.18;;;2.10;;
32080;SDS011;18593;51.426;7.030;2023-08-08T00:17:00;4.53;;;2.28;;
32080;SDS011;18593;51.426;7.030;2023-08-08T00:19:29;6.63;;;2.53;;
32080;SDS011;18593;51.426;7.030;2023-08-08T00:21:56;6.75;;;2.58;;
32080;SDS011;18593;51.426;7.030;2023-08-08T00:24:24;11.45;;;2.53;;
32080;SDS011;18593;51.426;7.030;2023-08-08T00:26:51;8.23;;;2.63;;
32080;SDS011;18593;51.426;7.030;2023-08-08T00:29:18;6.30;;;2.35;;
32080;SDS011;18593;51.426;7.030;2023-08-08T00:31:45;4.20;;;2.20;;
32080;SDS011;18593;51.426;7.030;2023-08-08T00:34:14;4.72;;;2.40;;
32080;SDS011;18593;51.426;7.030;2023-08-08T00:36:42;5.45;;;2.40;;
32080;SDS011;18593;51.426;7.030;2023-08-08T00:39:10;6.75;;;2.92;;
32080;SDS011;18593;51.426;7.030;2023-08-08T00:41:37;7.13;;;2.63;;
32080;SDS011;18593;51.426;7.030;2023-08-08T00:44:05;5.10;;;2.30;;
32080;SDS011;18593;51.426;7.030;2023-08-08T00:46:32;7.35;;;2.65;;
32080;SDS011;18593;51.426;7.030;2023-08-08T00:48:59;6.68;;;2.53;;
32080;SDS011;18593;51.426;7.030;2023-08-08T00:51:27;6.50;;;2.25;;
32080;SDS011;18593;51.426;7.030;2023-08-08T00:53:55;4.65;;;2.28;;
32080;SDS011;18593;51.426;7.030;2023-08-08T00:56:23;4.72;;;2.38;;
32080;SDS011;18593;51.426;7.030;2023-08-08T00:58:51;6.45;;;2.30;;
32080;SDS011;18593;51.426;7.030;2023-08-08T01:01:18;5.85;;;2.80;;
32080;SDS011;18593;51.426;7.030;2023-08-08T01:03:46;5.35;;;2.53;;
32080;SDS011;18593;51.426;7.030;2023-08-08T01:06:15;5.03;;;2.38;;
32080;SDS011;18593;51.426;7.030;2023-08-08T01:08:51;8.85;;;2.67;;
32080;SDS011;18593;51.426;7.030;2023-08-08T01:11:24;5.50;;;2.40;;
32080;SDS011;18593;51.426;7.030;2023-08-08T01:13:54;8.15;;;2.67;;
32080;SDS011;18593;51.426;7.030;2023-08-08T01:16:22;4.85;;;2.40;;
32080;SDS011;18593;51.426;7.030;2023-08-08T01:18:52;6.03;;;2.50;;
32080;SDS011;18593;51.426;7.030;2023-08-08T01:21:19;6.05;;;2.60;;
32080;SDS011;18593;51.426;7.030;2023-08-08T01:23:56;12.82;;;2.40;;
32080;SDS011;18593;51.426;7.030;2023-08-08T01:26:41;9.68;;;2.63;;
32080;SDS011;18593;51.426;7.030;2023-08-08T01:29:09;4.50;;;2.17;;
32080;SDS011;18593;51.426;7.030;2023-08-08T01:31:36;5.68;;;2.63;;
32080;SDS011;18593;51.426;7.030;2023-08-08T01:34:04;5.63;;;2.50;;
32080;SDS011;18593;51.426;7.030;2023-08-08T01:36:32;4.72;;;2.67;;
32080;SDS011;18593;51.426;7.030;2023-08-08T01:39:05;10.90;;;3.03;;
32080;SDS011;18593;51.426;7.030;2023-08-08T01:41:41;7.50;;;2.60;;
32080;SDS011;18593;51.426;7.030;2023-08-08T01:44:12;5.93;;;2.78;;
32080;SDS011;18593;51.426;7.030;2023-08-08T01:46:41;7.72;;;2.90;;
32080;SDS011;18593;51.426;7.030;2023-08-08T01:49:08;7.55;;;2.95;;
32080;SDS011;18593;51.426;7.030;2023-08-08T01:51:35;8.75;;;3.22;;
32080;SDS011;18593;51.426;7.030;2023-08-08T01:54:03;8.68;;;3.10;;
32080;SDS011;18593;51.426;7.030;2023-08-08T01:56:30;8.07;;;2.80;;
32080;SDS011;18593;51.426;7.030;2023-08-08T01:59:01;7.68;;;2.75;;
32080;SDS011;18593;51.426;7.030;2023-08-08T02:01:28;9.65;;;2.60;;
32080;SDS011;18593;51.426;7.030;2023-08-08T02:03:56;6.70;;;3.00;;
32080;SDS011;18593;51.426;7.030;2023-08-08T02:06:23;7.93;;;2.88;;
32080;SDS011;18593;51.426;7.030;2023-08-08T02:08:51;9.25;;;2.72;;
32080;SDS011;18593;51.426;7.030;2023-08-08T02:11:18;5.15;;;2.28;;
32080;SDS011;18593;51.426;7.030;2023-08-08T02:13:48;7.43;;;2.75;;
32080;SDS011;18593;51.426;7.030;2023-08-08T02:16:17;5.07;;;2.60;;
32080;SDS011;18593;51.426;7.030;2023-08-08T02:18:44;7.55;;;2.58;;
32080;SDS011;18593;51.426;7.030;2023-08-08T02:21:12;5.15;;;2.40;;
32080;SDS011;18593;51.426;7.030;2023-08-08T02:23:40;11.65;;;3.58;;
32080;SDS011;18593;51.426;7.030;2023-08-08T02:26:07;10.50;;;2.83;;
32080;SDS011;18593;51.426;7.030;2023-08-08T02:28:34;10.32;;;2.92;;
32080;SDS011;18593;51.426;7.030;2023-08-08T02:31:02;7.40;;;2.55;;
32080;SDS011;18593;51.426;7.030;2023-08-08T02:33:30;7.43;;;2.53;;
32080;SDS011;18593;51.426;7.030;2023-08-08T02:35:58;7.75;;;2.63;;
32080;SDS011;18593;51.426;7.030;2023-08-08T02:38:25;8.65;;;2.75;;
32080;SDS011;18593;51.426;7.030;2023-08-08T02:40:52;5.78;;;2.50;;
32080;SDS011;18593;51.426;7.030;2023-08-08T02:43:20;10.00;;;3.10;;
32080;SDS011;18593;51.426;7.030;2023-08-08T02:45:48;7.90;;;2.83;;
32080;SDS011;18593;51.426;7.030;2023-08-08T02:48:15;8.05;;;2.90;;
32080;SDS011;18593;51.426;7.030;2023-08-08T02:50:45;5.78;;;2.80;;
32080;SDS011;18593;51.426;7.030;2023-08-08T02:53:13;5.97;;;2.75;;
32080;SDS011;18593;51.426;7.030;2023-08-08T02:55:44;5.75;;;2.88;;
32080;SDS011;18593;51.426;7.030;2023-08-08T02:58:11;7.47;;;2.55;;
32080;SDS011;18593;51.426;7.030;2023-08-08T03:00:39;7.10;;;2.90;;
32080;SDS011;18593;51.426;7.030;2023-08-08T03:03:11;5.95;;;2.60;;
32080;SDS011;18593;51.426;7.030;2023-08-08T03:05:39;6.63;;;2.90;;
32080;SDS011;18593;51.426;7.030;2023-08-08T03:08:08;8.10;;;2.95;;
32080;SDS011;18593;51.426;7.030;2023-08-08T03:10:35;10.45;;;2.70;;
32080;SDS011;18593;51.426;7.030;2023-08-08T03:13:03;9.05;;;3.33;;
32080;SDS011;18593;51.426;7.030;2023-08-08T03:15:31;7.07;;;3.10;;
32080;SDS011;18593;51.426;7.030;2023-08-08T03:18:00;5.55;;;2.80;;
32080;SDS011;18593;51.426;7.030;2023-08-08T03:20:29;9.02;;;3.22;;
32080;SDS011;18593;51.426;7.030;2023-08-08T03:22:56;7.80;;;3.40;;
32080;SDS011;18593;51.426;7.030;2023-08-08T03:25:25;8.52;;;3.15;;
32080;SDS011;18593;51.426;7.030;2023-08-08T03:27:53;8.73;;;3.20;;
32080;SDS011;18593;51.426;7.030;2023-08-08T03:30:20;6.65;;;3.13;;
32080;SDS011;18593;51.426;7.030;2023-08-08T03:32:48;6.47;;;3.28;;
32080;SDS011;18593;51.426;7.030;2023-08-08T03:35:15;7.25;;;3.22;;
32080;SDS011;18593;51.426;7.030;2023-08-08T03:37:43;9.35;;;3.38;;
32080;SDS011;18593;51.426;7.030;2023-08-08T03:40:11;12.18;;;3.30;;
32080;SDS011;18593;51.426;7.030;2023-08-08T03:42:41;7.10;;;3.35;;
32080;SDS011;18593;51.426;7.030;2023-08-08T03:45:09;7.75;;;3.67;;
32080;SDS011;18593;51.426;7.030;2023-08-08T03:47:37;7.32;;;3.60;;
32080;SDS011;18593;51.426;7.030;2023-08-08T03:50:05;8.35;;;3.20;;
32080;SDS011;18593;51.426;7.030;2023-08-08T03:52:34;12.98;;;3.85;;
32080;SDS011;18593;51.426;7.030;2023-08-08T03:55:03;8.20;;;3.70;;
32080;SDS011;18593;51.426;7.030;2023-08-08T03:57:31;6.45;;;3.03;;
32080;SDS011;18593;51.426;7.030;2023-08-08T04:00:02;10.45;;;3.80;;
32080;SDS011;18593;51.426;7.030;2023-08-08T04:05:07;7.40;;;3.08;;
32080;SDS011;18593;51.426;7.030;2023-08-08T04:07:37;7.97;;;3.27;;
32080;SDS011;18593;51.426;7.030;2023-08-08T04:10:05;10.85;;;3.80;;
32080;SDS011;18593;51.426;7.030;2023-08-08T04:12:34;6.47;;;3.17;;
32080;SDS011;18593;51.426;7.030;2023-08-08T04:15:03;8.27;;;3.53;;
32080;SDS011;18593;51.426;7.030;2023-08-08T04:17:31;10.60;;;3.55;;
32080;SDS011;18593;51.426;7.030;2023-08-08T04:19:58;7.55;;;3.45;;
32080;SDS011;18593;51.426;7.030;2023-08-08T04:22:26;9.20;;;4.25;;
32080;SDS011;18593;51.426;7.030;2023-08-08T04:24:55;9.65;;;4.00;;
32080;SDS011;18593;51.426;7.030;2023-08-08T04:27:22;8.20;;;3.90;;
32080;SDS011;18593;51.426;7.030;2023-08-08T04:29:50;10.05;;;3.80;;
32080;SDS011;18593;51.426;7.030;2023-08-08T04:32:19;8.15;;;3.65;;
32080;SDS011;18593;51.426;7.030;2023-08-08T04:34:47;8.52;;;3.92;;
32080;SDS011;18593;51.426;7.030;2023-08-08T04:37:14;7.03;;;3.60;;
32080;SDS011;18593;51.426;7.030;2023-08-08T04:39:41;8.07;;;3.60;;
32080;SDS011;18593;51.426;7.030;2023-08-08T04:42:09;12.57;;;3.97;;
32080;SDS011;18593;51.426;7.030;2023-08-08T04:44:36;10.13;;;3.70;;
32080;SDS011;18593;51.426;7.030;2023-08-08T04:47:04;9.13;;;4.10;;
32080;SDS011;18593;51.426;7.030;2023-08-08T04:49:33;12.90;;;4.38;;
32080;SDS011;18593;51.426;7.030;2023-08-08T04:52:00;12.95;;;4.35;;
32080;SDS011;18593;51.426;7.030;2023-08-08T04:54:28;12.25;;;4.20;;
32080;SDS011;18593;51.426;7.030;2023-08-08T04:56:56;7.60;;;4.07;;
32080;SDS011;18593;51.426;7.030;2023-08-08T04:59:26;14.18;;;4.32;;
32080;SDS011;18593;51.426;7.030;2023-08-08T05:01:53;10.43;;;4.88;;
32080;SDS011;18593;51.426;7.030;2023-08-08T05:04:20;10.50;;;5.10;;
32080;SDS011;18593;51.426;7.030;2023-08-08T05:06:49;13.18;;;5.15;;
32080;SDS011;18593;51.426;7.030;2023-08-08T05:09:17;12.05;;;5.43;;
32080;SDS011;18593;51.426;7.030;2023-08-08T05:11:45;14.60;;;5.75;;
32080;SDS011;18593;51.426;7.030;2023-08-08T05:14:13;13.45;;;5.70;;
32080;SDS011;18593;51.426;7.030;2023-08-08T05:16:40;17.02;;;6.28;;
32080;SDS011;18593;51.426;7.030;2023-08-08T05:19:07;15.25;;;6.65;;
32080;SDS011;18593;51.426;7.030;2023-08-08T05:21:34;16.45;;;6.90;;
32080;SDS011;18593;51.426;7.030;2023-08-08T05:24:04;13.20;;;6.45;;
32080;SDS011;18593;51.426;7.030;2023-08-08T05:26:32;14.35;;;7.32;;
32080;SDS011;18593;51.426;7.030;2023-08-08T05:29:00;15.65;;;7.25;;
32080;SDS011;18593;51.426;7.030;2023-08-08T05:31:27;22.05;;;7.75;;
32080;SDS011;18593;51.426;7.030;2023-08-08T05:33:55;14.18;;;6.93;;
32080;SDS011;18593;51.426;7.030;2023-08-08T05:36:22;17.08;;;7.70;;
32080;SDS011;18593;51.426;7.030;2023-08-08T05:38:49;13.23;;;6.75;;
32080;SDS011;18593;51.426;7.030;2023-08-08T05:41:18;15.82;;;8.00;;
32080;SDS011;18593;51.426;7.030;2023-08-08T05:43:46;16.48;;;7.40;;
32080;SDS011;18593;51.426;7.030;2023-08-08T05:46:13;15.82;;;7.43;;
32080;SDS011;18593;51.426;7.030;2023-08-08T05:48:40;20.38;;;8.75;;
32080;SDS011;18593;51.426;7.030;2023-08-08T05:51:07;18.33;;;7.85;;
32080;SDS011;18593;51.426;7.030;2023-08-08T05:53:35;16.85;;;8.90;;
32080;SDS011;18593;51.426;7.030;2023-08-08T05:56:03;18.70;;;8.85;;
32080;SDS011;18593;51.426;7.030;2023-08-08T05:58:32;16.17;;;8.27;;
32080;SDS011;18593;51.426;7.030;2023-08-08T06:00:59;15.88;;;8.70;;
32080;SDS011;18593;51.426;7.030;2023-08-08T06:03:29;22.27;;;10.38;;
32080;SDS011;18593;51.426;7.030;2023-08-08T06:05:57;23.30;;;9.95;;
32080;SDS011;18593;51.426;7.030;2023-08-08T06:08:24;21.58;;;9.65;;
32080;SDS011;18593;51.426;7.030;2023-08-08T06:10:51;20.30;;;9.85;;
32080;SDS011;18593;51.426;7.030;2023-08-08T06:13:19;21.48;;;10.45;;
32080;SDS011;18593;51.426;7.030;2023-08-08T06:15:47;17.55;;;10.07;;
32080;SDS011;18593;51.426;7.030;2023-08-08T06:18:15;21.08;;;10.05;;
32080;SDS011;18593;51.426;7.030;2023-08-08T06:20:43;24.67;;;9.55;;
32080;SDS011;18593;51.426;7.030;2023-08-08T06:23:10;19.83;;;9.48;;
32080;SDS011;18593;51.426;7.030;2023-08-08T06:25:37;20.27;;;10.52;;
32080;SDS011;18593;51.426;7.030;2023-08-08T06:28:05;24.15;;;10.20;;
32080;SDS011;18593;51.426;7.030;2023-08-08T06:30:33;22.20;;;9.63;;
32080;SDS011;18593;51.426;7.030;2023-08-08T06:33:01;20.75;;;10.10;;
32080;SDS011;18593;51.426;7.030;2023-08-08T06:35:29;21.15;;;10.73;;
32080;SDS011;18593;51.426;7.030;2023-08-08T06:37:56;21.77;;;9.18;;
32080;SDS011;18593;51.426;7.030;2023-08-08T06:40:23;23.25;;;9.43;;
32080;SDS011;18593;51.426;7.030;2023-08-08T06:42:51;19.50;;;10.60;;
32080;SDS011;18593;51.426;7.030;2023-08-08T06:45:18;25.50;;;10.68;;
32080;SDS011;18593;51.426;7.030;2023-08-08T06:47:46;26.08;;;11.77;;
32080;SDS011;18593;51.426;7.030;2023-08-08T06:50:15;24.67;;;11.75;;
32080;SDS011;18593;51.426;7.030;2023-08-08T06:52:43;22.60;;;11.95;;
32080;SDS011;18593;51.426;7.030;2023-08-08T06:55:10;24.08;;;12.55;;
32080;SDS011;18593;51.426;7.030;2023-08-08T06:57:37;25.80;;;13.30;;
32080;SDS011;18593;51.426;7.030;2023-08-08T07:00:05;25.05;;;12.93;;
32080;SDS011;18593;51.426;7.030;2023-08-08T07:02:33;28.30;;;14.18;;
32080;SDS011;18593;51.426;7.030;2023-08-08T07:05:01;21.88;;;12.65;;
32080;SDS011;18593;51.426;7.030;2023-08-08T07:07:30;22.20;;;12.60;;
32080;SDS011;18593;51.426;7.030;2023-08-08T07:09:58;25.40;;;13.65;;
32080;SDS011;18593;51.426;7.030;2023-08-08T07:12:26;28.67;;;14.05;;
32080;SDS011;18593;51.426;7.030;2023-08-08T07:14:53;31.08;;;13.38;;
32080;SDS011;18593;51.426;7.030;2023-08-08T07:17:20;27.42;;;14.65;;
32080;SDS011;18593;51.426;7.030;2023-08-08T07:19:48;24.83;;;13.55;;
32080;SDS011;18593;51.426;7.030;2023-08-08T07:22:15;27.17;;;11.95;;
32080;SDS011;18593;51.426;7.030;2023-08-08T07:24:44;24.48;;;12.93;;
32080;SDS011;18593;51.426;7.030;2023-08-08T07:27:11;20.90;;;11.73;;
32080;SDS011;18593;51.426;7.030;2023-08-08T07:29:39;21.83;;;11.95;;
32080;SDS011;18593;51.426;7.030;2023-08-08T07:32:06;23.00;;;12.40;;
32080;SDS011;18593;51.426;7.030;2023-08-08T07:34:34;26.40;;;12.30;;
32080;SDS011;18593;51.426;7.030;2023-08-08T07:37:02;24.42;;;12.68;;
32080;SDS011;18593;51.426;7.030;2023-08-08T07:39:29;21.85;;;12.15;;
32080;SDS011;18593;51.426;7.030;2023-08-08T07:41:58;18.90;;;11.25;;
32080;SDS011;18593;51.426;7.030;2023-08-08T07:44:26;21.67;;;10.95;;
32080;SDS011;18593;51.426;7.030;2023-08-08T07:46:53;19.42;;;11.07;;
32080;SDS011;18593;51.426;7.030;2023-08-08T07:49:20;19.90;;;10.80;;
32080;SDS011;18593;51.426;7.030;2023-08-08T07:51:47;17.40;;;9.73;;
32080;SDS011;18593;51.426;7.030;2023-08-08T07:54:15;21.88;;;9.80;;
32080;SDS011;18593;51.426;7.030;2023-08-08T07:56:42;22.08;;;8.88;;
32080;SDS011;18593;51.426;7.030;2023-08-08T07:59:11;18.42;;;8.50;;
32080;SDS011;18593;51.426;7.030;2023-08-08T08:01:38;18.63;;;8.35;;
32080;SDS011;18593;51.426;7.030;2023-08-08T08:04:06;16.05;;;7.28;;
32080;SDS011;18593;51.426;7.030;2023-08-08T08:06:33;13.77;;;7.30;;
32080;SDS011;18593;51.426;7.030;2023-08-08T08:09:01;17.63;;;8.00;;
32080;SDS011;18593;51.426;7.030;2023-08-08T08:11:28;13.40;;;6.88;;
32080;SDS011;18593;51.426;7.030;2023-08-08T08:13:56;13.45;;;7.13;;
32080;SDS011;18593;51.426;7.030;2023-08-08T08:16:24;18.63;;;7.15;;
32080;SDS011;18593;51.426;7.030;2023-08-08T08:18:52;17.35;;;6.80;;
32080;SDS011;18593;51.426;7.030;2023-08-08T08:21:19;13.75;;;6.50;;
32080;SDS011;18593;51.426;7.030;2023-08-08T08:23:47;18.00;;;7.05;;
32080;SDS011;18593;51.426;7.030;2023-08-08T08:26:14;16.13;;;6.13;;
32080;SDS011;18593;51.426;7.030;2023-08-08T08:28:41;16.65;;;5.85;;
32080;SDS011;18593;51.426;7.030;2023-08-08T08:31:09;14.02;;;5.93;;
32080;SDS011;18593;51.426;7.030;2023-08-08T08:33:37;14.55;;;5.30;;
32080;SDS011;18593;51.426;7.030;2023-08-08T08:36:05;15.38;;;5.38;;
32080;SDS011;18593;51.426;7.030;2023-08-08T08:38:33;14.30;;;5.53;;
32080;SDS011;18593;51.426;7.030;2023-08-08T08:41:00;15.60;;;4.60;;
32080;SDS011;18593;51.426;7.030;2023-08-08T08:43:29;12.18;;;4.78;;
32080;SDS011;18593;51.426;7.030;2023-08-08T08:45:57;12.63;;;5.55;;
32080;SDS011;18593;51.426;7.030;2023-08-08T08:48:28;11.93;;;5.30;;
32080;SDS011;18593;51.426;7.030;2023-08-08T08:50:56;13.60;;;4.97;;
32080;SDS011;18593;51.426;7.030;2023-08-08T08:53:24;11.45;;;5.15;;
32080;SDS011;18593;51.426;7.030;2023-08-08T08:55:52;11.43;;;4.80;;
32080;SDS011;18593;51.426;7.030;2023-08-08T08:58:22;8.65;;;4.22;;
32080;SDS011;18593;51.426;7.030;2023-08-08T09:00:50;15.35;;;4.05;;
32080;SDS011;18593;51.426;7.030;2023-08-08T09:03:18;11.13;;;4.30;;
32080;SDS011;18593;51.426;7.030;2023-08-08T09:05:46;8.57;;;4.13;;
32080;SDS011;18593;51.426;7.030;2023-08-08T09:08:15;9.95;;;3.78;;
32080;SDS011;18593;51.426;7.030;2023-08-08T09:10:43;9.00;;;4.00;;
32080;SDS011;18593;51.426;7.030;2023-08-08T09:13:11;10.25;;;4.05;;
32080;SDS011;18593;51.426;7.030;2023-08-08T09:15:38;11.50;;;4.38;;
32080;SDS011;18593;51.426;7.030;2023-08-08T09:18:06;10.73;;;4.07;;
32080;SDS011;18593;51.426;7.030;2023-08-08T09:20:34;10.98;;;3.90;;
32080;SDS011;18593;51.426;7.030;2023-08-08T09:23:01;9.68;;;3.80;;
32080;SDS011;18593;51.426;7.030;2023-08-08T09:25:30;9.90;;;3.90;;
32080;SDS011;18593;51.426;7.030;2023-08-08T09:27:57;10.13;;;3.90;;
32080;SDS011;18593;51.426;7.030;2023-08-08T09:30:27;12.35;;;3.85;;
32080;SDS011;18593;51.426;7.030;2023-08-08T09:32:57;9.18;;;3.42;;
32080;SDS011;18593;51.426;7.030;2023-08-08T09:35:25;9.52;;;4.00;;
32080;SDS011;18593;51.426;7.030;2023-08-08T09:37:54;11.10;;;4.00;;
32080;SDS011;18593;51.426;7.030;2023-08-08T09:40:22;10.60;;;3.55;;
32080;SDS011;18593;51.426;7.030;2023-08-08T09:42:52;11.57;;;3.75;;
32080;SDS011;18593;51.426;7.030;2023-08-08T09:45:20;9.57;;;3.33;;
32080;SDS011;18593;51.426;7.030;2023-08-08T09:47:48;8.80;;;3.40;;
32080;SDS011;18593;51.426;7.030;2023-08-08T09:50:17;11.02;;;3.28;;
32080;SDS011;18593;51.426;7.030;2023-08-08T09:52:45;16.38;;;4.38;;
32080;SDS011;18593;51.426;7.030;2023-08-08T09:55:13;14.45;;;4.60;;
32080;SDS011;18593;51.426;7.030;2023-08-08T09:57:41;15.00;;;4.30;;
32080;SDS011;18593;51.426;7.030;2023-08-08T10:00:11;12.57;;;3.92;;
32080;SDS011;18593;51.426;7.030;2023-08-08T10:02:43;15.10;;;4.07;;
32080;SDS011;18593;51.426;7.030;2023-08-08T10:05:14;12.32;;;4.18;;
32080;SDS011;18593;51.426;7.030;2023-08-08T10:07:42;10.82;;;4.15;;
32080;SDS011;18593;51.426;7.030;2023-08-08T10:10:09;12.32;;;3.70;;
32080;SDS011;18593;51.426;7.030;2023-08-08T10:12:37;10.75;;;3.63;;
32080;SDS011;18593;51.426;7.030;2023-08-08T10:15:06;14.07;;;3.63;;
32080;SDS011;18593;51.426;7.030;2023-08-08T10:17:37;12.18;;;3.80;;
32080;SDS011;18593;51.426;7.030;2023-08-08T10:20:08;11.35;;;3.90;;
32080;SDS011;18593;51.426;7.030;2023-08-08T10:25:08;10.75;;;4.03;;
32080;SDS011;18593;51.426;7.030;2023-08-08T10:27:43;11.20;;;3.80;;
32080;SDS011;18593;51.426;7.030;2023-08-08T10:30:10;7.10;;;3.30;;
32080;SDS011;18593;51.426;7.030;2023-08-08T10:32:41;9.30;;;2.97;;
32080;SDS011;18593;51.426;7.030;2023-08-08T10:35:11;11.88;;;3.63;;
32080;SDS011;18593;51.426;7.030;2023-08-08T10:37:39;7.63;;;2.92;;
32080;SDS011;18593;51.426;7.030;2023-08-08T10:40:07;13.27;;;3.75;;
32080;SDS011;18593;51.426;7.030;2023-08-08T10:42:43;10.77;;;3.20;;
32080;SDS011;18593;51.426;7.030;2023-08-08T10:45:13;8.90;;;3.28;;
32080;SDS011;18593;51.426;7.030;2023-08-08T10:47:43;9.32;;;3.88;;
32080;SDS011;18593;51.426;7.030;2023-08-08T10:50:11;8.13;;;2.88;;
32080;SDS011;18593;51.426;7.030;2023-08-08T10:52:50;8.52;;;3.35;;
32080;SDS011;18593;51.426;7.030;2023-08-08T10:55:21;7.32;;;2.58;;
32080;SDS011;18593;51.426;7.030;2023-08-08T10:57:57;11.27;;;3.17;;
32080;SDS011;18593;51.426;7.030;2023-08-08T11:00:30;8.57;;;2.90;;
32080;SDS011;18593;51.426;7.030;2023-08-08T11:03:01;11.75;;;3.58;;
32080;SDS011;18593;51.426;7.030;2023-08-08T11:05:31;11.63;;;3.50;;
32080;SDS011;18593;51.426;7.030;2023-08-08T11:08:00;11.52;;;4.13;;
32080;SDS011;18593;51.426;7.030;2023-08-08T11:10:29;12.32;;;4.03;;
32080;SDS011;18593;51.426;7.030;2023-08-08T11:13:01;12.20;;;3.60;;
32080;SDS011;18593;51.426;7.030;2023-08-08T11:15:31;12.30;;;3.58;;
32080;SDS011;18593;51.426;7.030;2023-08-08T11:18:01;8.52;;;3.17;;
32080;SDS011;18593;51.426;7.030;2023-08-08T11:20:29;12.05;;;3.50;;
32080;SDS011;18593;51.426;7.030;2023-08-08T11:22:59;7.80;;;3.28;;
32080;SDS011;18593;51.426;7.030;2023-08-08T11:25:27;11.38;;;3.35;;
32080;SDS011;18593;51.426;7.030;2023-08-08T11:27:57;7.05;;;2.78;;
32080;SDS011;18593;51.426;7.030;2023-08-08T11:30:27;8.35;;;3.05;;
32080;SDS011;18593;51.426;7.030;2023-08-08T11:32:56;6.70;;;2.50;;
32080;SDS011;18593;51.426;7.030;2023-08-08T11:35:25;10.05;;;3.33;;
32080;SDS011;18593;51.426;7.030;2023-08-08T11:37:53;6.30;;;3.03;;
32080;SDS011;18593;51.426;7.030;2023-08-08T11:40:25;13.40;;;3.38;;
32080;SDS011;18593;51.426;7.030;2023-08-08T11:42:54;16.30;;;3.70;;
32080;SDS011;18593;51.426;7.030;2023-08-08T11:45:23;9.18;;;3.83;;
32080;SDS011;18593;51.426;7.030;2023-08-08T11:47:51;12.25;;;3.20;;
32080;SDS011;18593;51.426;7.030;2023-08-08T11:50:22;10.88;;;3.60;;
32080;SDS011;18593;51.426;7.030;2023-08-08T11:52:53;8.32;;;2.95;;
32080;SDS011;18593;51.426;7.030;2023-08-08T11:55:26;7.15;;;3.10;;
32080;SDS011;18593;51.426;7.030;2023-08-08T11:57:54;9.93;;;3.50;;
32080;SDS011;18593;51.426;7.030;2023-08-08T12:00:26;12.88;;;3.70;;
32080;SDS011;18593;51.426;7.030;2023-08-08T12:05:24;12.80;;;3.58;;
32080;SDS011;18593;51.426;7.030;2023-08-08T12:07:52;7.65;;;3.20;;
32080;SDS011;18593;51.426;7.030;2023-08-08T12:10:20;9.02;;;3.50;;
32080;SDS011;18593;51.426;7.030;2023-08-08T12:12:52;10.25;;;3.28;;
32080;SDS011;18593;51.426;7.030;2023-08-08T12:15:23;12.48;;;3.63;;
32080;SDS011;18593;51.426;7.030;2023-08-08T12:17:54;8.40;;;3.38;;
32080;SDS011;18593;51.426;7.030;2023-08-08T12:20:22;8.00;;;3.00;;
32080;SDS011;18593;51.426;7.030;2023-08-08T12:22:50;9.32;;;3.35;;
32080;SDS011;18593;51.426;7.030;2023-08-08T12:25:17;12.32;;;3.63;;
32080;SDS011;18593;51.426;7.030;2023-08-08T12:27:45;11.77;;;3.08;;
32080;SDS011;18593;51.426;7.030;2023-08-08T12:30:12;12.43;;;3.30;;
32080;SDS011;18593;51.426;7.030;2023-08-08T12:32:39;11.75;;;3.30;;
32080;SDS011;18593;51.426;7.030;2023-08-08T12:35:07;8.68;;;2.83;;
32080;SDS011;18593;51.426;7.030;2023-08-08T12:37:35;8.55;;;3.33;;
32080;SDS011;18593;51.426;7.030;2023-08-08T12:40:05;9.95;;;2.83;;
32080;SDS011;18593;51.426;7.030;2023-08-08T12:42:34;9.38;;;2.90;;
32080;SDS011;18593;51.426;7.030;2023-08-08T12:45:02;7.85;;;3.00;;
32080;SDS011;18593;51.426;7.030;2023-08-08T12:47:30;8.35;;;3.20;;
32080;SDS011;18593;51.426;7.030;2023-08-08T12:49:57;12.45;;;3.25;;
32080;SDS011;18593;51.426;7.030;2023-08-08T12:52:24;10.20;;;3.20;;
32080;SDS011;18593;51.426;7.030;2023-08-08T12:54:52;6.15;;;2.88;;
32080;SDS011;18593;51.426;7.030;2023-08-08T12:57:21;10.13;;;3.55;;
32080;SDS011;18593;51.426;7.030;2023-08-08T12:59:48;8.43;;;3.30;;
32080;SDS011;18593;51.426;7.030;2023-08-08T13:02:15;8.23;;;2.97;;
32080;SDS011;18593;51.426;7.030;2023-08-08T13:04:43;9.20;;;3.20;;
32080;SDS011;18593;51.426;7.030;2023-08-08T13:07:10;8.23;;;3.17;;
32080;SDS011;18593;51.426;7.030;2023-08-08T13:09:38;7.55;;;3.20;;
32080;SDS011;18593;51.426;7.030;2023-08-08T13:12:05;11.43;;;3.13;;
32080;SDS011;18593;51.426;7.030;2023-08-08T13:14:35;10.02;;;3.15;;
32080;SDS011;18593;51.426;7.030;2023-08-08T13:17:17;6.97;;;3.13;;
32080;SDS011;18593;51.426;7.030;2023-08-08T13:19:44;9.25;;;2.80;;
32080;SDS011;18593;51.426;7.030;2023-08-08T13:22:12;11.35;;;2.60;;
32080;SDS011;18593;51.426;7.030;2023-08-08T13:24:39;7.05;;;2.50;;
32080;SDS011;18593;51.426;7.030;2023-08-08T13:27:06;7.55;;;2.70;;
32080;SDS011;18593;51.426;7.030;2023-08-08T13:29:35;8.18;;;3.05;;
32080;SDS011;18593;51.426;7.030;2023-08-08T13:32:03;5.18;;;2.30;;
32080;SDS011;18593;51.426;7.030;2023-08-08T13:34:31;7.35;;;3.03;;
32080;SDS011;18593;51.426;7.030;2023-08-08T13:36:58;10.20;;;2.90;;
32080;SDS011;18593;51.426;7.030;2023-08-08T13:39:26;8.48;;;2.83;;
32080;SDS011;18593;51.426;7.030;2023-08-08T13:41:53;12.07;;;2.95;;
32080;SDS011;18593;51.426;7.030;2023-08-08T13:44:21;8.30;;;3.13;;
32080;SDS011;18593;51.426;7.030;2023-08-08T13:46:50;10.90;;;2.97;;
32080;SDS011;18593;51.426;7.030;2023-08-08T13:49:17;5.57;;;3.05;;
32080;SDS011;18593;51.426;7.030;2023-08-08T13:51:45;10.38;;;2.70;;
32080;SDS011;18593;51.426;7.030;2023-08-08T13:54:12;7.47;;;2.67;;
32080;SDS011;18593;51.426;7.030;2023-08-08T13:56:39;8.63;;;2.40;;
32080;SDS011;18593;51.426;7.030;2023-08-08T13:59:07;9.48;;;2.50;;
32080;SDS011;18593;51.426;7.030;2023-08-08T14:01:34;7.63;;;2.50;;
32080;SDS011;18593;51.426;7.030;2023-08-08T14:04:03;5.75;;;2.00;;
32080;SDS011;18593;51.426;7.030;2023-08-08T14:06:31;8.13;;;2.10;;
32080;SDS011;18593;51.426;7.030;2023-08-08T14:08:58;7.25;;;2.10;;
32080;SDS011;18593;51.426;7.030;2023-08-08T14:11:25;6.82;;;2.00;;
32080;SDS011;18593;51.426;7.030;2023-08-08T14:13:53;3.95;;;2.00;;
32080;SDS011;18593;51.426;7.030;2023-08-08T14:16:20;6.57;;;3.05;;
32080;SDS011;18593;51.426;7.030;2023-08-08T14:18:47;4.53;;;2.10;;
32080;SDS011;18593;51.426;7.030;2023-08-08T14:21:16;14.43;;;2.58;;
32080;SDS011;18593;51.426;7.030;2023-08-08T14:23:43;6.53;;;2.22;;
32080;SDS011;18593;51.426;7.030;2023-08-08T14:26:12;4.63;;;2.22;;
32080;SDS011;18593;51.426;7.030;2023-08-08T14:28:39;8.02;;;2.58;;
32080;SDS011;18593;51.426;7.030;2023-08-08T14:31:06;7.07;;;2.35;;
32080;SDS011;18593;51.426;7.030;2023-08-08T14:33:34;5.57;;;2.25;;
32080;SDS011;18593;51.426;7.030;2023-08-08T14:36:01;6.18;;;2.10;;
32080;SDS011;18593;51.426;7.030;2023-08-08T14:38:33;7.97;;;2.00;;
32080;SDS011;18593;51.426;7.030;2023-08-08T14:41:02;5.45;;;2.20;;
32080;SDS011;18593;51.426;7.030;2023-08-08T14:43:30;5.72;;;1.90;;
32080;SDS011;18593;51.426;7.030;2023-08-08T14:45:57;6.20;;;2.40;;
32080;SDS011;18593;51.426;7.030;2023-08-08T14:48:25;6.18;;;2.30;;
32080;SDS011;18593;51.426;7.030;2023-08-08T14:50:52;5.43;;;2.20;;
32080;SDS011;18593;51.426;7.030;2023-08-08T14:53:20;5.95;;;2.10;;
32080;SDS011;18593;51.426;7.030;2023-08-08T14:55:49;4.40;;;1.75;;